Time;durP1;ratioP1;P1;durP2;ratioP2;P2;SDS_P1;SDS_P2;PMS_P1;PMS_P2;Temp;Humidity;BMP_temperature;BMP_pressure;BME280_temperature;BME280_humidity;BME280_pressure;Samples;Min_cycle;Max_cycle;Signal;HPM_P1;HPM_P2
2020/12/24 00:00:54;;;;;;;4.87;1.50;;;;;;;;;;4975165;28;20176;-71
2020/12/24 00:03:19;;;;;;;3.50;1.80;;;;;;;;;;4969868;28;20289;-71
2020/12/24 00:05:44;;;;;;;6.03;2.00;;;;;;;;;;4974805;28;20221;-70
2020/12/24 00:08:09;;;;;;;3.90;1.67;;;;;;;;;;4971789;28;20182;-70
2020/12/24 00:10:34;;;;;;;8.37;2.33;;;;;;;;;;4977135;28;20723;-71
2020/12/24 00:13:00;;;;;;;5.93;2.07;;;;;;;;;;4972994;28;21368;-71
2020/12/24 00:15:25;;;;;;;8.27;2.50;;;;;;;;;;4969885;28;20311;-70
2020/12/24 00:17:50;;;;;;;5.60;2.13;;;;;;;;;;4963186;28;20220;-71
2020/12/24 00:20:16;;;;;;;4.03;1.97;;;;;;;;;;4950732;28;20234;-70
2020/12/24 00:22:41;;;;;;;4.33;2.40;;;;;;;;;;4960324;28;20247;-70
2020/12/24 00:25:07;;;;;;;9.63;2.50;;;;;;;;;;4973849;28;20173;-71
2020/12/24 00:27:32;;;;;;;5.63;2.50;;;;;;;;;;4978961;28;20172;-70
2020/12/24 00:29:57;;;;;;;14.57;2.80;;;;;;;;;;4971905;28;20188;-72
2020/12/24 00:32:22;;;;;;;6.33;2.53;;;;;;;;;;4974097;28;20179;-70
2020/12/24 00:34:47;;;;;;;5.97;2.53;;;;;;;;;;4973596;28;20507;-70
2020/12/24 00:37:12;;;;;;;4.30;2.37;;;;;;;;;;4971033;28;20259;-71
2020/12/24 00:39:38;;;;;;;4.50;2.00;;;;;;;;;;4974311;28;20603;-71
2020/12/24 00:42:03;;;;;;;8.53;2.23;;;;;;;;;;4972847;28;20176;-71
2020/12/24 00:44:28;;;;;;;6.43;2.43;;;;;;;;;;4972826;28;20200;-71
2020/12/24 00:46:53;;;;;;;3.20;1.90;;;;;;;;;;4971766;28;20218;-71
2020/12/24 00:49:18;;;;;;;5.47;2.43;;;;;;;;;;4965120;28;20223;-72
2020/12/24 00:51:43;;;;;;;4.17;1.80;;;;;;;;;;4973271;28;20188;-71
2020/12/24 00:54:09;;;;;;;6.43;2.70;;;;;;;;;;4970631;28;20278;-71
2020/12/24 00:56:34;;;;;;;7.97;1.60;;;;;;;;;;4989770;28;20242;-71
2020/12/24 00:58:59;;;;;;;3.40;1.60;;;;;;;;;;4976490;28;20168;-71
2020/12/24 01:01:24;;;;;;;4.97;1.50;;;;;;;;;;4970628;28;20176;-71
2020/12/24 01:03:49;;;;;;;3.80;1.50;;;;;;;;;;4963675;28;20215;-71
2020/12/24 01:06:15;;;;;;;5.73;1.50;;;;;;;;;;4967168;28;20200;-71
2020/12/24 01:08:40;;;;;;;5.57;1.17;;;;;;;;;;4978202;28;20191;-71
2020/12/24 01:11:05;;;;;;;6.90;1.53;;;;;;;;;;4982960;28;20242;-70
2020/12/24 01:13:30;;;;;;;4.20;2.10;;;;;;;;;;4969862;28;20200;-71
2020/12/24 01:15:55;;;;;;;4.77;2.23;;;;;;;;;;4986111;28;20680;-71
2020/12/24 01:18:21;;;;;;;6.73;1.87;;;;;;;;;;4971010;28;20188;-70
2020/12/24 01:20:46;;;;;;;5.10;1.50;;;;;;;;;;4966503;28;20179;-71
2020/12/24 01:23:11;;;;;;;2.83;1.63;;;;;;;;;;4980820;28;20203;-71
2020/12/24 01:25:36;;;;;;;6.63;2.30;;;;;;;;;;4968602;28;20176;-71
2020/12/24 01:28:02;;;;;;;5.43;2.00;;;;;;;;;;4972410;28;20236;-71
2020/12/24 01:30:27;;;;;;;4.10;1.47;;;;;;;;;;4972392;28;20194;-70
2020/12/24 01:32:52;;;;;;;4.77;1.80;;;;;;;;;;4963996;28;20208;-71
2020/12/24 01:35:18;;;;;;;2.90;1.20;;;;;;;;;;4972823;28;20229;-71
2020/12/24 01:37:43;;;;;;;5.03;1.87;;;;;;;;;;4973648;28;20693;-70
2020/12/24 01:40:08;;;;;;;9.60;1.93;;;;;;;;;;4972480;28;20255;-71
2020/12/24 01:42:33;;;;;;;9.30;1.70;;;;;;;;;;4973034;28;20204;-70
2020/12/24 01:44:58;;;;;;;4.50;1.33;;;;;;;;;;4973494;28;20227;-70
2020/12/24 01:47:24;;;;;;;4.53;1.53;;;;;;;;;;4969561;28;20172;-71
2020/12/24 01:49:49;;;;;;;5.00;1.23;;;;;;;;;;4973196;28;20549;-70
2020/12/24 01:52:23;;;;;;;2.97;1.50;;;;;;;;;;4977275;28;20703;-71
2020/12/24 01:54:48;;;;;;;6.97;1.70;;;;;;;;;;4973744;28;20636;-70
2020/12/24 01:57:14;;;;;;;3.67;1.00;;;;;;;;;;4980899;28;20203;-70
2020/12/24 01:59:39;;;;;;;4.03;1.10;;;;;;;;;;4975410;28;20172;-70
2020/12/24 02:02:04;;;;;;;6.07;1.60;;;;;;;;;;4973214;28;20661;-70
2020/12/24 02:04:29;;;;;;;4.17;1.73;;;;;;;;;;4973312;28;20223;-71
2020/12/24 02:06:54;;;;;;;3.90;1.20;;;;;;;;;;4976916;28;20176;-70
2020/12/24 02:09:19;;;;;;;6.33;1.30;;;;;;;;;;4976078;28;20196;-70
2020/12/24 02:11:44;;;;;;;5.83;1.50;;;;;;;;;;4977712;28;20264;-70
2020/12/24 02:14:10;;;;;;;2.70;1.30;;;;;;;;;;4976531;28;20218;-70
2020/12/24 02:16:35;;;;;;;6.53;1.80;;;;;;;;;;4968497;28;20251;-70
2020/12/24 02:19:01;;;;;;;3.23;1.63;;;;;;;;;;4979278;28;20188;-70
2020/12/24 02:21:26;;;;;;;7.13;1.50;;;;;;;;;;4974545;28;20184;-70
2020/12/24 02:23:51;;;;;;;3.70;1.27;;;;;;;;;;4973286;28;20196;-70
2020/12/24 02:26:16;;;;;;;7.87;1.30;;;;;;;;;;4974509;28;20661;-70
2020/12/24 02:28:42;;;;;;;4.63;1.30;;;;;;;;;;4980703;28;20184;-71
2020/12/24 02:31:08;;;;;;;3.37;1.27;;;;;;;;;;4975618;28;20653;-69
2020/12/24 02:33:34;;;;;;;7.43;1.07;;;;;;;;;;4973381;28;20208;-70
2020/12/24 02:35:59;;;;;;;4.93;1.40;;;;;;;;;;4975041;28;20242;-70
2020/12/24 02:38:24;;;;;;;7.03;1.57;;;;;;;;;;4976434;28;20235;-70
2020/12/24 02:40:49;;;;;;;5.40;1.30;;;;;;;;;;4984645;28;20195;-71
2020/12/24 02:43:15;;;;;;;3.30;1.23;;;;;;;;;;4978826;28;20198;-70
2020/12/24 02:45:40;;;;;;;5.80;2.10;;;;;;;;;;4970063;28;20558;-70
2020/12/24 02:48:05;;;;;;;5.43;1.57;;;;;;;;;;4972597;28;20172;-70
2020/12/24 02:50:30;;;;;;;6.43;1.20;;;;;;;;;;4973336;28;20600;-70
2020/12/24 02:52:55;;;;;;;8.60;1.33;;;;;;;;;;4987622;28;20211;-70
2020/12/24 02:55:21;;;;;;;8.83;1.80;;;;;;;;;;4971316;28;20195;-70
2020/12/24 02:57:46;;;;;;;5.33;1.57;;;;;;;;;;4982176;28;20566;-70
2020/12/24 03:00:11;;;;;;;5.53;1.40;;;;;;;;;;4972351;28;20196;-70
2020/12/24 03:02:37;;;;;;;4.07;1.40;;;;;;;;;;4978551;28;20728;-71
2020/12/24 03:05:03;;;;;;;5.07;1.57;;;;;;;;;;4989633;28;20216;-71
2020/12/24 03:07:28;;;;;;;3.33;1.17;;;;;;;;;;4973309;28;20601;-70
2020/12/24 03:09:54;;;;;;;4.70;1.70;;;;;;;;;;4974708;28;20184;-70
2020/12/24 03:12:20;;;;;;;5.17;1.50;;;;;;;;;;4976671;28;20187;-70
2020/12/24 03:14:45;;;;;;;6.57;1.80;;;;;;;;;;4973551;28;20271;-71
2020/12/24 03:17:10;;;;;;;3.20;1.40;;;;;;;;;;4973129;28;20675;-70
2020/12/24 03:19:35;;;;;;;2.77;1.30;;;;;;;;;;4972329;28;20210;-70
2020/12/24 03:22:01;;;;;;;6.43;2.13;;;;;;;;;;4974614;28;20489;-70
2020/12/24 03:24:26;;;;;;;3.78;1.63;;;;;;;;;;4976973;28;20287;-70
2020/12/24 03:26:51;;;;;;;5.80;1.73;;;;;;;;;;4975737;28;20219;-70
2020/12/24 03:29:16;;;;;;;5.60;1.60;;;;;;;;;;4974101;28;20190;-70
2020/12/24 03:31:41;;;;;;;4.97;1.50;;;;;;;;;;4984267;28;20216;-70
2020/12/24 03:34:07;;;;;;;9.97;1.93;;;;;;;;;;4959291;28;20590;-69
2020/12/24 03:36:32;;;;;;;7.47;2.30;;;;;;;;;;4980583;28;20204;-70
2020/12/24 03:38:57;;;;;;;11.70;3.67;;;;;;;;;;4981616;28;20183;-69
2020/12/24 03:41:22;;;;;;;11.23;2.30;;;;;;;;;;4970604;28;20196;-70
2020/12/24 03:43:47;;;;;;;13.33;2.20;;;;;;;;;;4983502;28;20222;-70
2020/12/24 03:46:12;;;;;;;6.77;2.23;;;;;;;;;;4978928;28;20204;-70
2020/12/24 03:48:38;;;;;;;11.37;2.73;;;;;;;;;;4978755;28;20639;-70
2020/12/24 03:51:03;;;;;;;5.20;2.33;;;;;;;;;;4973822;28;20185;-70
2020/12/24 03:53:28;;;;;;;4.73;4.10;;;;;;;;;;4976263;28;20717;-69
2020/12/24 03:55:53;;;;;;;4.87;4.27;;;;;;;;;;4973918;28;20180;-70
2020/12/24 03:58:18;;;;;;;10.33;4.77;;;;;;;;;;4975404;28;20252;-70
2020/12/24 04:00:44;;;;;;;5.70;4.67;;;;;;;;;;4987430;28;20182;-71
2020/12/24 04:03:09;;;;;;;4.23;3.67;;;;;;;;;;4974710;28;20594;-71
2020/12/24 04:05:34;;;;;;;7.17;3.50;;;;;;;;;;4973938;28;20177;-70
2020/12/24 04:07:59;;;;;;;4.23;2.47;;;;;;;;;;4976587;28;20558;-70
2020/12/24 04:10:24;;;;;;;2.70;2.20;;;;;;;;;;4970751;28;20189;-71
2020/12/24 04:12:50;;;;;;;1.93;1.33;;;;;;;;;;4968539;28;20228;-71
2020/12/24 04:15:15;;;;;;;2.33;1.70;;;;;;;;;;4972306;28;20192;-70
2020/12/24 04:17:40;;;;;;;1.90;1.40;;;;;;;;;;4973503;28;20569;-71
2020/12/24 04:20:05;;;;;;;1.50;1.30;;;;;;;;;;4971324;28;20183;-70
2020/12/24 04:22:30;;;;;;;1.30;1.13;;;;;;;;;;4973092;28;20195;-69
2020/12/24 04:24:56;;;;;;;1.53;1.43;;;;;;;;;;4969564;28;20227;-71
2020/12/24 04:27:21;;;;;;;1.20;1.10;;;;;;;;;;4978566;28;20621;-70
2020/12/24 04:29:46;;;;;;;3.37;1.10;;;;;;;;;;4972255;28;20186;-71
2020/12/24 04:32:12;;;;;;;1.00;0.90;;;;;;;;;;4971099;28;20188;-70
2020/12/24 04:34:37;;;;;;;2.37;1.30;;;;;;;;;;4972724;28;20215;-70
2020/12/24 04:37:02;;;;;;;0.73;0.70;;;;;;;;;;4977854;28;20199;-71
2020/12/24 04:39:27;;;;;;;1.80;0.97;;;;;;;;;;4972192;28;20558;-70
2020/12/24 04:41:53;;;;;;;1.67;0.83;;;;;;;;;;4973225;28;20180;-70
2020/12/24 04:44:18;;;;;;;0.60;0.60;;;;;;;;;;4971877;28;20569;-71
2020/12/24 04:46:43;;;;;;;1.30;0.90;;;;;;;;;;4969836;28;20228;-70
2020/12/24 04:49:09;;;;;;;1.70;0.60;;;;;;;;;;4965054;28;20712;-70
2020/12/24 04:51:34;;;;;;;0.60;0.60;;;;;;;;;;4969902;28;20237;-70
2020/12/24 04:54:00;;;;;;;2.67;0.80;;;;;;;;;;4974002;28;20694;-71
2020/12/24 04:56:25;;;;;;;0.60;0.60;;;;;;;;;;4970007;28;20263;-71
2020/12/24 04:58:51;;;;;;;0.40;0.40;;;;;;;;;;4972826;28;20650;-70
2020/12/24 05:01:17;;;;;;;0.73;0.63;;;;;;;;;;4970169;28;20196;-70
2020/12/24 05:03:43;;;;;;;0.50;0.50;;;;;;;;;;4971090;28;20231;-71
2020/12/24 05:06:15;;;;;;;0.40;0.40;;;;;;;;;;4962812;28;20189;-70
2020/12/24 05:08:40;;;;;;;3.40;0.50;;;;;;;;;;4971794;28;20277;-70
2020/12/24 05:11:08;;;;;;;1.73;0.60;;;;;;;;;;4970011;28;20188;-70
2020/12/24 05:13:33;;;;;;;0.30;0.30;;;;;;;;;;4971937;28;20615;-70
2020/12/24 05:16:12;;;;;;;0.30;0.30;;;;;;;;;;4971125;28;20319;-70
2020/12/24 05:18:37;;;;;;;0.40;0.40;;;;;;;;;;4978244;28;20263;-71
2020/12/24 05:21:02;;;;;;;0.47;0.40;;;;;;;;;;4970537;28;20318;-70
2020/12/24 05:23:28;;;;;;;0.47;0.45;;;;;;;;;;4972209;28;20215;-71
2020/12/24 05:25:53;;;;;;;1.23;0.40;;;;;;;;;;4971609;28;20200;-70
2020/12/24 05:28:25;;;;;;;0.97;0.30;;;;;;;;;;4977668;28;20201;-71
2020/12/24 05:30:51;;;;;;;1.50;0.50;;;;;;;;;;4971801;28;20191;-70
2020/12/24 05:33:25;;;;;;;0.40;0.30;;;;;;;;;;4958291;28;20208;-71
2020/12/24 05:35:50;;;;;;;0.67;0.53;;;;;;;;;;4968973;28;20544;-71
2020/12/24 05:38:30;;;;;;;0.50;0.37;;;;;;;;;;4968490;28;20208;-70
2020/12/24 05:40:55;;;;;;;1.33;0.40;;;;;;;;;;4969947;28;20211;-71
2020/12/24 05:43:20;;;;;;;0.30;0.30;;;;;;;;;;4969949;28;20724;-70
2020/12/24 05:45:45;;;;;;;1.53;0.90;;;;;;;;;;4967526;28;20177;-71
2020/12/24 05:48:11;;;;;;;0.77;0.50;;;;;;;;;;4979406;28;20270;-71
2020/12/24 05:50:37;;;;;;;1.30;0.40;;;;;;;;;;4971660;28;20203;-71
2020/12/24 05:53:13;;;;;;;0.63;0.40;;;;;;;;;;4968764;28;20717;-70
2020/12/24 05:55:39;;;;;;;1.47;0.50;;;;;;;;;;4963730;28;20307;-71
2020/12/24 05:58:05;;;;;;;3.63;0.50;;;;;;;;;;4970095;28;20212;-70
2020/12/24 06:00:35;;;;;;;0.37;0.30;;;;;;;;;;4972166;28;20181;-71
2020/12/24 06:03:19;;;;;;;0.40;0.40;;;;;;;;;;4966603;28;20216;-70
2020/12/24 06:05:54;;;;;;;0.77;0.30;;;;;;;;;;4965584;28;20184;-70
2020/12/24 06:08:43;;;;;;;0.40;0.37;;;;;;;;;;4961728;28;20699;-70
2020/12/24 06:11:09;;;;;;;0.47;0.30;;;;;;;;;;4971900;28;20188;-70
2020/12/24 06:13:45;;;;;;;0.40;0.30;;;;;;;;;;4964335;28;20217;-70
2020/12/24 06:16:11;;;;;;;0.70;0.70;;;;;;;;;;4971085;28;20659;-70
2020/12/24 06:18:38;;;;;;;1.17;0.40;;;;;;;;;;4979483;28;20200;-70
2020/12/24 06:21:11;;;;;;;0.47;0.47;;;;;;;;;;4976503;28;20643;-70
2020/12/24 06:23:37;;;;;;;0.87;0.50;;;;;;;;;;4974670;28;20267;-70
2020/12/24 06:26:04;;;;;;;0.43;0.40;;;;;;;;;;4970576;28;20176;-71
2020/12/24 06:28:32;;;;;;;2.23;0.40;;;;;;;;;;4958692;28;20181;-70
2020/12/24 06:30:58;;;;;;;1.53;0.40;;;;;;;;;;4967879;28;20181;-70
2020/12/24 06:33:27;;;;;;;0.97;0.30;;;;;;;;;;4992404;28;20223;-70
2020/12/24 06:35:53;;;;;;;0.57;0.40;;;;;;;;;;4972519;28;20190;-69
2020/12/24 06:38:38;;;;;;;0.57;0.43;;;;;;;;;;4980988;28;20207;-70
2020/12/24 06:41:20;;;;;;;0.73;0.40;;;;;;;;;;4975491;28;20184;-69
2020/12/24 06:43:45;;;;;;;1.10;0.40;;;;;;;;;;4964965;28;20248;-70
2020/12/24 06:46:10;;;;;;;1.40;0.32;;;;;;;;;;4966990;28;20184;-70
2020/12/24 06:48:35;;;;;;;0.60;0.47;;;;;;;;;;4968099;28;20169;-71
2020/12/24 06:51:04;;;;;;;0.57;0.35;;;;;;;;;;4973323;28;20546;-70
2020/12/24 06:53:29;;;;;;;0.40;0.40;;;;;;;;;;4975728;28;20264;-70
2020/12/24 06:56:20;;;;;;;0.40;0.40;;;;;;;;;;4969068;28;20176;-70
2020/12/24 06:58:50;;;;;;;0.40;0.30;;;;;;;;;;4963588;28;20202;-70
2020/12/24 07:01:26;;;;;;;0.70;0.40;;;;;;;;;;4972799;28;20186;-70
2020/12/24 07:03:53;;;;;;;1.03;0.37;;;;;;;;;;4970071;28;21394;-71
2020/12/24 07:06:49;;;;;;;0.53;0.50;;;;;;;;;;4967008;28;20267;-70
2020/12/24 07:09:20;;;;;;;1.77;0.60;;;;;;;;;;4972863;28;20204;-71
2020/12/24 07:11:49;;;;;;;1.10;0.47;;;;;;;;;;4966444;28;20645;-70
2020/12/24 07:14:24;;;;;;;0.70;0.67;;;;;;;;;;4978464;28;20259;-71
2020/12/24 07:16:52;;;;;;;1.67;0.70;;;;;;;;;;4976856;28;20204;-70
2020/12/24 07:19:17;;;;;;;0.40;0.40;;;;;;;;;;4973732;28;20559;-70
2020/12/24 07:21:45;;;;;;;0.90;0.60;;;;;;;;;;4968975;28;20196;-70
2020/12/24 07:24:11;;;;;;;2.53;0.90;;;;;;;;;;4965459;28;20696;-70
2020/12/24 07:26:36;;;;;;;1.47;1.00;;;;;;;;;;4969199;28;20235;-70
2020/12/24 07:29:02;;;;;;;0.60;0.60;;;;;;;;;;4972699;28;20179;-70
2020/12/24 07:31:27;;;;;;;1.07;0.87;;;;;;;;;;4973788;28;20203;-70
2020/12/24 07:33:52;;;;;;;0.80;0.70;;;;;;;;;;4987877;28;20208;-70
2020/12/24 07:36:17;;;;;;;0.77;0.67;;;;;;;;;;4962842;28;20203;-70
2020/12/24 07:38:43;;;;;;;2.43;0.90;;;;;;;;;;4975516;28;20186;-70
2020/12/24 07:41:14;;;;;;;1.83;0.90;;;;;;;;;;4971240;28;20172;-71
2020/12/24 07:43:39;;;;;;;1.23;1.13;;;;;;;;;;4975970;28;20215;-71
2020/12/24 07:46:08;;;;;;;0.87;0.80;;;;;;;;;;4966858;28;20581;-70
2020/12/24 07:48:33;;;;;;;1.93;1.10;;;;;;;;;;4974651;28;20208;-70
2020/12/24 07:51:06;;;;;;;2.07;1.03;;;;;;;;;;4973363;28;20204;-70
2020/12/24 07:53:31;;;;;;;1.17;1.07;;;;;;;;;;4959101;28;20524;-70
2020/12/24 07:56:04;;;;;;;1.30;0.80;;;;;;;;;;4969215;28;20172;-70
2020/12/24 07:58:30;;;;;;;0.97;0.80;;;;;;;;;;4972248;28;20192;-70
2020/12/24 08:00:56;;;;;;;1.60;1.10;;;;;;;;;;4975835;28;20172;-70
2020/12/24 08:03:21;;;;;;;1.77;1.23;;;;;;;;;;4964522;28;20216;-70
2020/12/24 08:05:47;;;;;;;1.63;1.30;;;;;;;;;;4963687;28;20180;-70
2020/12/24 08:08:13;;;;;;;1.60;1.40;;;;;;;;;;4970543;28;20286;-72
2020/12/24 08:10:42;;;;;;;3.97;2.90;;;;;;;;;;4974366;28;20302;-70
2020/12/24 08:13:07;;;;;;;1.93;1.57;;;;;;;;;;4972349;28;20207;-70
2020/12/24 08:15:34;;;;;;;3.27;1.90;;;;;;;;;;4963793;28;20176;-70
2020/12/24 08:18:00;;;;;;;2.13;1.93;;;;;;;;;;4972494;28;20200;-70
2020/12/24 08:20:30;;;;;;;2.20;1.80;;;;;;;;;;4969337;28;20232;-70
2020/12/24 08:23:02;;;;;;;3.70;2.20;;;;;;;;;;4975007;28;20202;-70
2020/12/24 08:25:28;;;;;;;2.00;1.80;;;;;;;;;;4996745;28;20187;-70
2020/12/24 08:27:53;;;;;;;2.13;1.40;;;;;;;;;;4969107;28;20180;-70
2020/12/24 08:30:19;;;;;;;5.13;1.53;;;;;;;;;;4970268;28;20198;-70
2020/12/24 08:32:44;;;;;;;2.47;1.60;;;;;;;;;;4971925;28;20755;-70
2020/12/24 08:35:14;;;;;;;3.17;1.80;;;;;;;;;;4970769;28;20212;-70
2020/12/24 08:37:39;;;;;;;3.03;1.40;;;;;;;;;;4987753;28;20231;-70
2020/12/24 08:40:21;;;;;;;3.03;1.80;;;;;;;;;;4971962;28;20180;-70
2020/12/24 08:42:47;;;;;;;2.77;1.60;;;;;;;;;;4972315;28;20192;-70
2020/12/24 08:45:12;;;;;;;3.73;2.00;;;;;;;;;;4970629;28;20659;-70
2020/12/24 08:47:38;;;;;;;2.50;2.10;;;;;;;;;;4967223;28;20180;-70
2020/12/24 08:50:03;;;;;;;3.40;1.90;;;;;;;;;;4969940;28;20231;-70
2020/12/24 08:52:34;;;;;;;2.13;1.80;;;;;;;;;;4973694;28;20184;-70
2020/12/24 08:55:00;;;;;;;3.50;1.80;;;;;;;;;;4972230;28;20566;-70
2020/12/24 08:57:25;;;;;;;3.67;1.73;;;;;;;;;;4974267;28;20234;-71
2020/12/24 08:59:57;;;;;;;2.17;1.53;;;;;;;;;;4971713;28;20211;-70
2020/12/24 09:02:26;;;;;;;2.47;1.50;;;;;;;;;;4975820;28;20167;-71
2020/12/24 09:04:52;;;;;;;2.43;1.40;;;;;;;;;;4975190;28;20741;-69
2020/12/24 09:07:22;;;;;;;1.57;1.47;;;;;;;;;;4974428;28;20275;-69
2020/12/24 09:09:47;;;;;;;3.93;1.67;;;;;;;;;;4972639;28;20194;-69
2020/12/24 09:12:12;;;;;;;4.60;1.73;;;;;;;;;;4974245;28;20183;-69
2020/12/24 09:14:37;;;;;;;3.47;1.70;;;;;;;;;;4973508;28;20196;-72
2020/12/24 09:17:03;;;;;;;2.83;2.10;;;;;;;;;;4969760;28;20294;-70
2020/12/24 09:19:29;;;;;;;1.93;1.70;;;;;;;;;;4976669;28;20216;-70
2020/12/24 09:21:55;;;;;;;4.63;1.80;;;;;;;;;;4978809;28;20547;-70
2020/12/24 09:24:21;;;;;;;4.47;1.93;;;;;;;;;;4973988;28;20200;-70
2020/12/24 09:26:46;;;;;;;4.33;2.20;;;;;;;;;;4973102;28;20242;-69
2020/12/24 09:29:11;;;;;;;2.77;1.77;;;;;;;;;;4979497;28;20194;-69
2020/12/24 09:31:36;;;;;;;2.97;1.80;;;;;;;;;;4967350;28;20608;-70
2020/12/24 09:34:02;;;;;;;5.10;2.00;;;;;;;;;;4973622;28;20705;-72
2020/12/24 09:36:27;;;;;;;3.83;2.03;;;;;;;;;;4972343;28;20291;-71
2020/12/24 09:38:52;;;;;;;4.67;2.13;;;;;;;;;;4975670;28;20255;-69
2020/12/24 09:41:17;;;;;;;3.93;2.77;;;;;;;;;;4975433;28;20300;-68
2020/12/24 09:43:42;;;;;;;8.37;3.40;;;;;;;;;;4977052;28;20679;-69
2020/12/24 09:46:07;;;;;;;3.70;2.83;;;;;;;;;;4975067;28;20188;-69
2020/12/24 09:48:33;;;;;;;3.97;2.67;;;;;;;;;;4968660;28;20188;-70
2020/12/24 09:50:58;;;;;;;6.37;2.90;;;;;;;;;;4972592;28;20183;-70
2020/12/24 09:53:24;;;;;;;4.33;2.60;;;;;;;;;;4977769;28;20668;-69
2020/12/24 09:55:49;;;;;;;7.47;2.60;;;;;;;;;;4975539;28;20939;-70
2020/12/24 09:58:14;;;;;;;7.27;2.70;;;;;;;;;;4977488;28;20874;-69
2020/12/24 10:00:39;;;;;;;3.20;1.50;;;;;;;;;;4978969;28;20207;-70
2020/12/24 10:03:04;;;;;;;3.40;2.38;;;;;;;;;;4974062;28;20290;-70
2020/12/24 10:05:29;;;;;;;4.87;2.20;;;;;;;;;;4997256;28;20183;-70
2020/12/24 10:07:57;;;;;;;8.47;2.10;;;;;;;;;;4986174;28;20185;-71
2020/12/24 10:10:22;;;;;;;6.17;1.33;;;;;;;;;;4989769;28;20175;-70
2020/12/24 10:12:47;;;;;;;5.50;1.27;;;;;;;;;;4973686;28;20200;-70
2020/12/24 10:15:12;;;;;;;8.77;1.73;;;;;;;;;;4974291;28;20210;-71
2020/12/24 10:17:37;;;;;;;8.27;2.07;;;;;;;;;;4975129;28;20204;-70
2020/12/24 10:20:03;;;;;;;6.63;1.52;;;;;;;;;;4980072;28;20180;-70
2020/12/24 10:22:28;;;;;;;6.67;1.07;;;;;;;;;;4971482;28;20781;-70
2020/12/24 10:24:53;;;;;;;8.47;1.63;;;;;;;;;;4978108;28;20177;-70
2020/12/24 10:27:18;;;;;;;10.90;1.60;;;;;;;;;;4984211;28;20203;-69
2020/12/24 10:29:44;;;;;;;5.17;1.00;;;;;;;;;;4978492;28;20281;-70
2020/12/24 10:32:09;;;;;;;7.67;2.07;;;;;;;;;;4977085;28;20592;-70
2020/12/24 10:34:34;;;;;;;5.90;1.57;;;;;;;;;;4976657;28;21314;-70
2020/12/24 10:37:00;;;;;;;9.33;4.40;;;;;;;;;;4977528;28;20207;-69
2020/12/24 10:39:26;;;;;;;10.43;2.03;;;;;;;;;;4981661;28;20203;-69
2020/12/24 10:41:51;;;;;;;7.53;2.07;;;;;;;;;;4977869;28;20646;-70
2020/12/24 10:44:17;;;;;;;8.10;1.43;;;;;;;;;;4982250;28;20321;-70
2020/12/24 10:46:42;;;;;;;6.27;1.87;;;;;;;;;;4961326;28;20262;-71
2020/12/24 10:49:07;;;;;;;7.93;1.60;;;;;;;;;;4969019;28;20237;-70
2020/12/24 10:51:32;;;;;;;5.07;2.10;;;;;;;;;;4978831;28;20260;-70
2020/12/24 10:53:58;;;;;;;9.07;1.63;;;;;;;;;;4975945;28;20556;-70
2020/12/24 10:56:23;;;;;;;10.63;2.33;;;;;;;;;;4977980;28;20250;-70
2020/12/24 10:58:48;;;;;;;6.93;2.13;;;;;;;;;;4978954;28;20205;-71
2020/12/24 11:01:14;;;;;;;10.10;2.70;;;;;;;;;;4973094;28;20185;-71
2020/12/24 11:03:39;;;;;;;9.27;1.90;;;;;;;;;;4971348;28;20211;-70
2020/12/24 11:06:05;;;;;;;6.27;2.80;;;;;;;;;;4963957;28;20239;-70
2020/12/24 11:08:31;;;;;;;9.83;2.27;;;;;;;;;;4967830;28;20275;-71
2020/12/24 11:10:56;;;;;;;6.87;1.70;;;;;;;;;;4970746;28;20271;-70
2020/12/24 11:13:21;;;;;;;9.33;3.43;;;;;;;;;;4972706;28;20204;-71
2020/12/24 11:15:46;;;;;;;9.80;2.23;;;;;;;;;;4975596;28;20197;-71
2020/12/24 11:18:12;;;;;;;8.63;1.90;;;;;;;;;;4980907;28;20211;-71
2020/12/24 11:20:37;;;;;;;6.63;2.20;;;;;;;;;;4973184;28;20806;-71
2020/12/24 11:23:02;;;;;;;6.13;2.40;;;;;;;;;;4973166;28;20252;-70
2020/12/24 11:25:28;;;;;;;10.37;2.03;;;;;;;;;;4973995;28;20200;-70
2020/12/24 11:27:53;;;;;;;9.93;1.70;;;;;;;;;;4974713;28;20259;-70
2020/12/24 11:30:18;;;;;;;9.20;2.73;;;;;;;;;;4969916;28;20181;-70
2020/12/24 11:32:43;;;;;;;5.97;2.00;;;;;;;;;;4974216;28;20228;-70
2020/12/24 11:35:10;;;;;;;7.73;1.87;;;;;;;;;;4970439;28;20187;-70
2020/12/24 11:37:35;;;;;;;9.00;1.40;;;;;;;;;;4966135;28;20196;-70
2020/12/24 11:40:00;;;;;;;10.17;2.00;;;;;;;;;;4959160;28;20204;-71
2020/12/24 11:42:26;;;;;;;8.23;1.83;;;;;;;;;;4953078;28;20176;-71
2020/12/24 11:44:51;;;;;;;5.57;1.43;;;;;;;;;;4956417;28;20177;-71
2020/12/24 11:47:16;;;;;;;4.37;1.63;;;;;;;;;;4958320;28;20661;-71
2020/12/24 11:49:41;;;;;;;8.67;1.67;;;;;;;;;;4967409;28;20216;-71
2020/12/24 11:52:06;;;;;;;6.97;1.90;;;;;;;;;;4971158;28;20184;-70
2020/12/24 11:54:32;;;;;;;5.30;1.27;;;;;;;;;;4955003;28;20752;-71
2020/12/24 11:56:58;;;;;;;7.37;1.43;;;;;;;;;;4954108;28;20212;-72
2020/12/24 11:59:23;;;;;;;7.63;1.30;;;;;;;;;;4952986;28;20691;-71
2020/12/24 12:01:49;;;;;;;5.30;1.40;;;;;;;;;;4954743;28;20183;-71
2020/12/24 12:04:14;;;;;;;8.97;1.73;;;;;;;;;;4953931;28;20290;-71
2020/12/24 12:06:39;;;;;;;9.70;1.50;;;;;;;;;;4954302;28;20267;-72
2020/12/24 12:09:04;;;;;;;7.53;1.50;;;;;;;;;;4958457;28;20184;-71
2020/12/24 12:11:30;;;;;;;5.83;1.83;;;;;;;;;;4955541;28;20180;-71
2020/12/24 12:13:55;;;;;;;7.43;1.33;;;;;;;;;;4953306;28;20215;-71
2020/12/24 12:16:23;;;;;;;7.83;1.67;;;;;;;;;;4957455;28;20235;-71
2020/12/24 12:18:48;;;;;;;3.23;1.17;;;;;;;;;;4953010;28;20188;-71
2020/12/24 12:21:16;;;;;;;4.67;1.07;;;;;;;;;;4955684;28;20176;-71
2020/12/24 12:23:41;;;;;;;4.50;1.20;;;;;;;;;;4955990;28;20249;-71
2020/12/24 12:26:06;;;;;;;6.33;1.43;;;;;;;;;;4957565;28;20259;-71
2020/12/24 12:28:32;;;;;;;3.73;1.10;;;;;;;;;;4953443;28;20181;-71
2020/12/24 12:30:57;;;;;;;3.20;0.80;;;;;;;;;;4952841;28;20198;-71
2020/12/24 12:33:22;;;;;;;2.13;0.40;;;;;;;;;;4952478;28;20598;-71
2020/12/24 12:35:47;;;;;;;7.33;1.37;;;;;;;;;;4953228;28;20240;-70
2020/12/24 12:38:12;;;;;;;1.07;0.67;;;;;;;;;;4952105;28;20210;-72
2020/12/24 12:40:38;;;;;;;14.60;8.33;;;;;;;;;;4956237;28;20192;-71
2020/12/24 12:43:03;;;;;;;7.07;3.07;;;;;;;;;;4954335;28;20251;-69
2020/12/24 12:45:28;;;;;;;2.67;1.23;;;;;;;;;;4956973;28;20469;-73
2020/12/24 12:47:54;;;;;;;4.03;1.17;;;;;;;;;;4952443;28;20177;-73
2020/12/24 12:50:19;;;;;;;1.70;1.00;;;;;;;;;;4952347;28;20185;-73
2020/12/24 12:52:44;;;;;;;1.47;0.60;;;;;;;;;;4958154;28;20212;-71
2020/12/24 12:55:09;;;;;;;4.33;0.97;;;;;;;;;;4958408;28;20686;-73
2020/12/24 12:57:35;;;;;;;2.33;0.70;;;;;;;;;;4951937;28;20748;-73
2020/12/24 13:00:09;;;;;;;3.73;1.00;;;;;;;;;;4952166;28;20180;-73
2020/12/24 13:02:35;;;;;;;7.13;0.90;;;;;;;;;;4952768;28;20195;-72
2020/12/24 13:05:00;;;;;;;8.10;1.57;;;;;;;;;;4955649;28;20188;-73
2020/12/24 13:07:25;;;;;;;2.67;1.33;;;;;;;;;;4953548;28;20188;-74
2020/12/24 13:09:51;;;;;;;4.30;0.73;;;;;;;;;;4952797;28;20180;-72
2020/12/24 13:12:16;;;;;;;3.97;0.90;;;;;;;;;;4952947;28;20188;-72
2020/12/24 13:14:41;;;;;;;6.87;1.10;;;;;;;;;;4953114;28;21561;-72
2020/12/24 13:17:06;;;;;;;3.80;1.03;;;;;;;;;;4954452;28;20212;-72
2020/12/24 13:19:32;;;;;;;5.07;1.50;;;;;;;;;;4968942;28;20181;-72
2020/12/24 13:21:57;;;;;;;5.20;1.03;;;;;;;;;;4953972;28;21849;-72
2020/12/24 13:24:22;;;;;;;5.10;1.00;;;;;;;;;;4954555;28;20208;-72
2020/12/24 13:26:51;;;;;;;6.53;1.00;;;;;;;;;;4953277;28;20207;-72
2020/12/24 13:29:16;;;;;;;6.37;1.13;;;;;;;;;;4952788;28;20183;-72
2020/12/24 13:31:41;;;;;;;2.27;1.20;;;;;;;;;;4953813;28;20569;-72
2020/12/24 13:34:07;;;;;;;4.63;1.10;;;;;;;;;;4958586;28;20208;-72
2020/12/24 13:36:32;;;;;;;3.83;1.50;;;;;;;;;;4952006;28;20646;-72
2020/12/24 13:38:57;;;;;;;5.53;1.17;;;;;;;;;;4951217;28;20179;-72
2020/12/24 13:41:22;;;;;;;2.00;1.10;;;;;;;;;;4962838;28;20219;-72
2020/12/24 13:43:47;;;;;;;7.27;1.50;;;;;;;;;;4965045;28;20567;-71
2020/12/24 13:46:12;;;;;;;2.87;0.87;;;;;;;;;;4953850;28;20188;-72
2020/12/24 13:48:40;;;;;;;6.37;1.17;;;;;;;;;;4954504;28;20176;-71
2020/12/24 13:51:06;;;;;;;8.57;1.30;;;;;;;;;;4952218;28;20180;-72
2020/12/24 13:53:31;;;;;;;9.67;2.03;;;;;;;;;;4953219;28;20215;-72
2020/12/24 13:55:56;;;;;;;5.60;1.40;;;;;;;;;;4954097;28;20663;-72
2020/12/24 13:58:21;;;;;;;8.10;1.53;;;;;;;;;;4953331;28;20279;-73
2020/12/24 14:00:46;;;;;;;3.00;0.97;;;;;;;;;;4952642;28;20695;-73
2020/12/24 14:03:11;;;;;;;4.20;1.03;;;;;;;;;;4953849;28;20240;-72
2020/12/24 14:05:36;;;;;;;4.13;1.20;;;;;;;;;;4956814;28;20196;-73
2020/12/24 14:08:02;;;;;;;5.27;1.43;;;;;;;;;;4956613;28;20596;-73
2020/12/24 14:10:27;;;;;;;4.23;1.10;;;;;;;;;;4956843;28;20187;-73
2020/12/24 14:12:52;;;;;;;5.37;1.40;;;;;;;;;;4954702;28;20208;-73
2020/12/24 14:15:18;;;;;;;3.40;1.07;;;;;;;;;;4956862;28;20207;-75
2020/12/24 14:17:44;;;;;;;2.97;0.87;;;;;;;;;;4956215;28;20200;-73
2020/12/24 14:20:09;;;;;;;6.43;1.30;;;;;;;;;;4955146;28;20673;-73
2020/12/24 14:22:34;;;;;;;4.03;1.30;;;;;;;;;;4954482;28;21714;-73
2020/12/24 14:24:59;;;;;;;6.70;1.58;;;;;;;;;;4956683;28;20188;-73
2020/12/24 14:27:25;;;;;;;7.47;1.77;;;;;;;;;;4956710;28;20188;-73
2020/12/24 14:29:50;;;;;;;5.53;1.33;;;;;;;;;;4954181;28;20188;-73
2020/12/24 14:32:15;;;;;;;7.03;1.80;;;;;;;;;;4954096;28;20180;-73
2020/12/24 14:34:40;;;;;;;8.23;1.70;;;;;;;;;;4955533;28;20726;-73
2020/12/24 14:37:06;;;;;;;7.87;1.70;;;;;;;;;;4960188;28;20196;-73